Time;durP1;ratioP1;P1;durP2;ratioP2;P2;SDS_P1;SDS_P2;PMS_P1;PMS_P2;Temp;Humidity;BMP_temperature;BMP_pressure;BME280_temperature;BME280_humidity;BME280_pressure;Samples;Min_cycle;Max_cycle;Signal;HPM_P1;HPM_P2
2024/03/23 00:00:21;;;;;;;4.60;2.10;;;11.00;56.60;;;6.76;99.10;95068.78;4951048;28;20081;-47
2024/03/23 00:02:46;;;;;;;4.20;2.20;;;11.00;56.50;;;6.70;99.92;95063.44;4951698;28;20481;-48
2024/03/23 00:05:12;;;;;;;3.20;2.03;;;11.00;56.50;;;6.73;99.69;95070.88;4950098;28;20066;-48
2024/03/23 00:07:38;;;;;;;4.30;2.45;;;11.00;56.50;;;6.74;99.48;95063.78;4950214;28;20429;-49
2024/03/23 00:10:04;;;;;;;3.10;2.55;;;11.00;56.50;;;6.70;99.73;95062.66;4948227;28;20527;-48
2024/03/23 00:12:29;;;;;;;3.72;2.08;;;11.00;56.50;;;6.65;99.05;95065.28;4948955;28;20118;-48
2024/03/23 00:14:55;;;;;;;2.85;2.00;;;11.00;56.50;;;6.64;98.93;95059.19;4947479;28;20121;-51
2024/03/23 00:17:21;;;;;;;4.00;2.30;;;11.00;56.50;;;6.64;98.54;95064.50;4950851;28;20646;-47
2024/03/23 00:19:47;;;;;;;3.80;2.00;;;11.00;56.50;;;6.62;99.44;95057.84;4954199;28;20041;-49
2024/03/23 00:22:13;;;;;;;3.47;2.20;;;11.00;56.50;;;6.60;99.69;95057.28;4952058;28;20031;-46
2024/03/23 00:24:39;;;;;;;2.47;2.25;;;11.00;56.50;;;6.59;98.91;95058.34;4950664;28;20034;-49
2024/03/23 00:27:05;;;;;;;4.13;2.38;;;11.00;56.50;;;6.58;99.87;95065.50;4951378;28;20026;-46
2024/03/23 00:29:31;;;;;;;3.28;2.30;;;10.90;56.60;;;6.63;99.56;95065.50;4951701;28;20547;-50
2024/03/23 00:31:57;;;;;;;2.50;2.00;;;11.00;56.80;;;6.63;98.90;95059.44;4953284;28;20062;-51
2024/03/23 00:34:23;;;;;;;2.80;1.90;;;11.00;56.80;;;6.65;98.93;95058.13;4951653;28;20089;-49
2024/03/23 00:36:49;;;;;;;3.97;2.40;;;11.00;56.80;;;6.65;99.23;95055.50;4950097;28;20027;-50
2024/03/23 00:39:15;;;;;;;3.10;1.73;;;11.10;56.80;;;6.64;99.24;95059.19;4951590;28;20023;-46
2024/03/23 00:41:41;;;;;;;2.90;2.05;;;11.10;56.80;;;6.63;99.26;95052.28;4950346;28;20031;-53
2024/03/23 00:44:06;;;;;;;2.90;2.05;;;11.10;56.80;;;6.65;99.25;95057.34;4951701;28;20075;-50
2024/03/23 00:46:32;;;;;;;4.35;2.15;;;11.10;56.80;;;6.68;99.48;95052.34;4951057;28;20057;-54
2024/03/23 00:48:58;;;;;;;2.35;1.73;;;11.10;56.80;;;6.74;99.59;95047.88;4950887;28;20373;-46
2024/03/23 00:51:23;;;;;;;3.45;1.90;;;11.20;56.80;;;6.82;99.48;95050.06;4951336;28;20026;-46
2024/03/23 00:53:49;;;;;;;3.03;2.00;;;11.30;56.80;;;6.88;99.26;95043.75;4949589;28;20032;-45
2024/03/23 00:56:15;;;;;;;6.15;1.83;;;11.40;56.80;;;6.99;98.38;95041.16;4950923;28;20539;-48
2024/03/23 00:58:41;;;;;;;3.60;1.90;;;11.50;56.80;;;7.12;97.74;95030.13;4950194;28;20039;-51
2024/03/23 01:01:06;;;;;;;1.90;1.70;;;11.50;56.80;;;7.25;97.36;95024.38;4951189;28;20038;-52
2024/03/23 01:03:32;;;;;;;5.55;2.40;;;11.70;56.80;;;7.43;96.47;95033.75;4951427;28;20030;-53
2024/03/23 01:06:04;;;;;;;5.57;1.90;;;11.80;56.90;;;7.74;94.78;95018.78;4949542;28;20035;-52
2024/03/23 01:08:29;;;;;;;1.70;1.50;;;12.00;57.20;;;8.05;92.19;95016.19;4951109;28;20041;-47
2024/03/23 01:11:02;;;;;;;3.13;1.80;;;12.10;57.10;;;8.29;90.82;95005.91;4950002;28;20026;-48
2024/03/23 01:13:28;;;;;;;;;;;12.40;57.10;;;8.51;89.18;95006.47;4951825;28;20110;-47
2024/03/23 01:15:57;;;;;;;2.60;1.63;;;12.60;56.70;;;8.68;88.04;95003.56;4950599;28;19917;-47
2024/03/23 01:18:26;;;;;;;4.80;1.60;;;12.70;56.50;;;8.87;87.28;95003.00;4950226;28;20050;-49
2024/03/23 01:20:52;;;;;;;4.53;1.90;;;13.00;56.30;;;9.00;86.10;95002.47;4950991;28;20053;-47
2024/03/23 01:23:18;;;;;;;5.20;1.85;;;13.10;56.00;;;9.13;85.03;94996.59;4950057;28;20018;-47
2024/03/23 01:25:43;;;;;;;5.85;1.58;;;13.30;55.80;;;9.20;83.80;94997.09;4951351;28;20030;-47
2024/03/23 01:28:09;;;;;;;3.22;1.95;;;13.40;55.60;;;9.34;83.72;94997.34;4951116;28;20105;-47
2024/03/23 01:30:35;;;;;;;3.03;1.73;;;13.50;55.40;;;9.45;82.93;94988.25;4950210;28;20572;-48
2024/03/23 01:33:12;;;;;;;3.28;2.00;;;13.60;55.20;;;9.68;81.27;94981.53;4951600;28;20035;-52
2024/03/23 01:35:38;;;;;;;3.00;1.83;;;13.70;55.10;;;9.75;80.41;94986.56;4938962;28;20047;-48
2024/03/23 01:38:04;;;;;;;3.53;1.75;;;13.80;54.80;;;9.86;78.85;94980.09;4942829;28;20026;-51
2024/03/23 01:40:32;;;;;;;3.85;1.80;;;13.90;54.60;;;9.97;77.87;94978.19;4939148;28;20022;-54
2024/03/23 01:43:10;;;;;;;4.05;2.17;;;14.00;54.50;;;10.13;76.88;94974.38;4943382;28;20110;-54
2024/03/23 01:45:37;;;;;;;4.75;1.50;;;14.10;54.30;;;10.19;76.17;94970.59;4920497;29;20486;-52
2024/03/23 01:48:04;;;;;;;3.80;1.80;;;14.20;54.10;;;10.25;75.86;94962.56;4924327;29;20498;-56
2024/03/23 01:50:35;;;;;;;2.50;1.70;;;14.30;53.90;;;10.32;75.35;94960.44;4926844;29;20027;-52
2024/03/23 01:53:05;;;;;;;2.88;1.67;;;14.30;53.70;;;10.38;75.02;94960.13;4901042;29;21168;-55
2024/03/23 01:55:33;;;;;;;5.78;1.70;;;14.40;53.60;;;10.39;74.69;94955.59;4925717;29;20093;-56
2024/03/23 01:57:59;;;;;;;6.15;1.90;;;14.40;53.40;;;10.40;74.68;94950.00;4918907;29;20086;-56
2024/03/23 02:00:25;;;;;;;3.22;1.70;;;14.50;53.30;;;10.41;74.77;94948.91;4922718;29;20027;-56
2024/03/23 02:02:51;;;;;;;2.20;1.80;;;14.60;53.20;;;10.55;74.23;94933.06;4925496;29;20027;-55
2024/03/23 02:05:17;;;;;;;2.15;1.65;;;14.60;53.10;;;10.68;73.50;94928.97;4921082;29;20026;-54
2024/03/23 02:07:43;;;;;;;2.72;1.63;;;14.70;53.00;;;10.79;73.10;94932.34;4931090;29;20377;-56
2024/03/23 02:10:13;;;;;;;2.30;1.27;;;14.80;52.90;;;10.85;72.57;94932.00;4928730;29;20194;-54
2024/03/23 02:12:39;;;;;;;2.95;1.60;;;14.90;52.80;;;10.93;72.30;94927.13;4925436;29;20047;-55
2024/03/23 02:15:06;;;;;;;3.97;1.52;;;14.90;52.50;;;10.97;72.24;94918.31;4929753;29;20035;-55
2024/03/23 02:17:35;;;;;;;2.65;1.48;;;15.00;52.40;;;11.04;71.70;94907.31;4920563;29;20027;-56
2024/03/23 02:20:03;;;;;;;3.13;1.75;;;15.10;52.30;;;11.06;71.29;94910.47;4925417;29;20031;-53
2024/03/23 02:22:39;;;;;;;3.05;1.58;;;15.10;52.10;;;11.07;71.66;94910.19;4922243;29;20023;-56
2024/03/23 02:25:07;;;;;;;2.45;1.60;;;15.20;52.00;;;11.08;71.59;94911.78;4921977;29;20027;-52
2024/03/23 02:27:38;;;;;;;2.50;1.83;;;15.20;51.90;;;11.10;71.83;94898.97;4919283;29;20027;-52
2024/03/23 02:30:05;;;;;;;4.15;1.90;;;15.20;51.80;;;11.19;71.15;94895.66;4920509;29;20027;-54
2024/03/23 02:32:31;;;;;;;2.63;1.60;;;15.30;51.70;;;11.23;70.62;94891.38;4919916;29;20036;-57
2024/03/23 02:34:57;;;;;;;2.75;1.60;;;15.30;51.60;;;11.28;69.91;94886.78;4921269;29;20051;-57
2024/03/23 02:37:23;;;;;;;2.95;1.83;;;15.30;51.50;;;11.33;70.35;94885.91;4925529;29;20029;-57
2024/03/23 02:39:48;;;;;;;2.53;1.42;;;15.40;51.40;;;11.35;70.32;94873.88;4918354;29;20062;-55
2024/03/23 02:42:16;;;;;;;3.22;1.70;;;15.40;51.30;;;11.37;71.05;94876.25;4924937;29;20042;-54
2024/03/23 02:44:42;;;;;;;2.88;1.58;;;15.50;51.30;;;11.35;72.40;94875.75;4914875;29;20045;-53
2024/03/23 02:47:08;;;;;;;2.92;2.00;;;15.50;51.30;;;11.33;72.32;94870.69;4922059;29;20526;-54
2024/03/23 02:49:34;;;;;;;3.13;1.40;;;15.50;51.40;;;11.28;70.24;94862.78;4927703;29;20468;-57
2024/03/23 02:52:00;;;;;;;2.90;1.70;;;15.50;51.20;;;11.29;70.53;94863.56;4921902;29;20030;-58
2024/03/23 02:54:26;;;;;;;3.35;1.55;;;15.50;51.20;;;11.22;69.71;94857.78;4921729;29;20049;-53
2024/03/23 02:56:51;;;;;;;2.35;1.30;;;15.40;51.00;;;11.20;68.38;94854.63;4916458;29;20404;-55
2024/03/23 02:59:17;;;;;;;2.42;1.40;;;15.50;50.80;;;11.23;67.65;94862.84;4917489;29;20027;-55
2024/03/23 03:01:43;;;;;;;2.55;1.45;;;15.40;50.60;;;11.31;67.03;94845.41;4922836;29;20038;-51
2024/03/23 03:04:08;;;;;;;2.63;1.45;;;15.50;50.50;;;11.38;66.08;94842.41;4925538;29;20035;-52
2024/03/23 03:06:34;;;;;;;1.52;1.30;;;15.40;50.30;;;11.42;66.20;94844.19;4917776;29;20035;-52
2024/03/23 03:09:00;;;;;;;1.90;1.27;;;15.50;50.20;;;11.46;65.98;94847.88;4920600;29;20015;-52
2024/03/23 03:11:26;;;;;;;1.52;1.33;;;15.50;50.10;;;11.48;66.04;94847.59;4918095;29;20023;-53
2024/03/23 03:13:52;;;;;;;4.55;1.40;;;15.60;50.00;;;11.47;66.07;94840.66;4922253;29;20411;-55
2024/03/23 03:16:18;;;;;;;2.08;1.30;;;15.60;50.50;;;11.44;65.54;94843.91;4925055;29;20042;-55
2024/03/23 03:18:46;;;;;;;3.65;1.42;;;15.60;49.80;;;11.42;65.60;94841.53;4908345;29;20508;-55
2024/03/23 03:21:12;;;;;;;2.20;1.83;;;15.60;49.70;;;11.42;65.08;94846.06;4919301;29;20062;-56
2024/03/23 03:23:39;;;;;;;4.25;1.30;;;15.60;49.60;;;11.45;65.23;94843.63;4924403;29;20022;-53
2024/03/23 03:26:06;;;;;;;2.53;1.63;;;15.60;49.50;;;11.47;65.60;94846.00;4921178;29;20035;-53
2024/03/23 03:28:33;;;;;;;2.95;1.42;;;15.60;49.50;;;11.46;66.00;94845.19;4919881;29;20473;-54
2024/03/23 03:31:00;;;;;;;2.40;1.50;;;15.60;49.50;;;11.43;66.26;94840.44;4919227;29;20034;-53
2024/03/23 03:33:27;;;;;;;3.35;1.73;;;15.60;49.40;;;11.41;66.41;94849.84;4922406;29;20562;-52
2024/03/23 03:35:54;;;;;;;2.97;1.45;;;15.60;49.50;;;11.42;66.75;94844.19;4925160;29;20093;-51
2024/03/23 03:38:21;;;;;;;4.10;1.67;;;15.60;49.40;;;11.41;66.79;94849.84;4916590;29;20477;-51
2024/03/23 03:40:47;;;;;;;3.42;1.50;;;15.60;49.50;;;11.37;66.50;94848.78;4918466;29;20347;-52
2024/03/23 03:43:12;;;;;;;4.03;1.80;;;15.60;49.40;;;11.32;67.05;94844.34;4922544;29;20077;-53
2024/03/23 03:45:38;;;;;;;3.58;1.40;;;15.60;49.50;;;11.31;67.43;94840.06;4909503;29;20032;-51
2024/03/23 03:48:04;;;;;;;3.42;1.52;;;15.60;49.40;;;11.28;66.85;94832.63;4920283;29;20028;-51
2024/03/23 03:50:30;;;;;;;2.33;1.52;;;15.50;49.40;;;11.28;67.36;94832.63;4923947;29;20114;-51
2024/03/23 03:52:56;;;;;;;5.30;1.88;;;15.50;49.40;;;11.24;67.60;94829.75;4914142;29;20134;-51
2024/03/23 03:55:22;;;;;;;2.13;1.48;;;15.50;49.40;;;11.20;67.37;94822.63;4921409;29;20032;-50
2024/03/23 03:57:48;;;;;;;2.60;1.58;;;15.40;49.40;;;11.13;68.10;94815.00;4927839;29;21013;-52
2024/03/23 04:00:15;;;;;;;2.10;1.63;;;15.40;49.40;;;11.09;68.52;94805.97;4913460;29;20044;-50
2024/03/23 04:02:41;;;;;;;3.10;1.63;;;15.40;49.50;;;11.01;69.66;94803.94;4922188;29;20115;-52
2024/03/23 04:05:08;;;;;;;6.70;1.95;;;15.30;49.50;;;10.99;70.38;94808.75;4912863;29;20102;-50
2024/03/23 04:07:34;;;;;;;1.95;1.35;;;15.30;49.60;;;10.93;70.72;94786.72;4918118;29;20112;-52
2024/03/23 04:10:00;;;;;;;2.38;1.35;;;15.30;49.70;;;10.88;71.05;94794.78;4930977;29;20485;-54
2024/03/23 04:12:25;;;;;;;3.42;1.50;;;15.20;49.70;;;10.78;72.67;94792.22;4917473;29;20027;-51
2024/03/23 04:14:51;;;;;;;3.80;1.80;;;15.10;49.90;;;10.62;72.97;94786.28;4924446;29;20038;-51
2024/03/23 04:17:17;;;;;;;2.78;1.52;;;15.00;49.90;;;10.44;74.50;94779.03;4917386;29;20032;-50
2024/03/23 04:19:45;;;;;;;3.40;1.60;;;14.90;50.00;;;10.22;77.16;94779.50;4923541;29;20379;-50
2024/03/23 04:22:10;;;;;;;3.00;1.92;;;14.80;50.20;;;9.93;78.81;94762.47;4922086;28;20035;-52
2024/03/23 04:24:36;;;;;;;3.33;1.67;;;14.60;50.30;;;9.84;78.86;94760.66;4919922;29;20049;-51
2024/03/23 04:27:03;;;;;;;3.08;1.95;;;14.50;50.60;;;9.70;80.18;94766.63;4916872;29;20407;-51
2024/03/23 04:29:28;;;;;;;2.40;1.70;;;14.30;50.70;;;9.42;81.59;94754.88;4920398;29;20054;-53
2024/03/23 04:31:55;;;;;;;3.00;1.48;;;14.20;51.00;;;9.32;81.40;94749.66;4918350;29;20121;-52
2024/03/23 04:34:23;;;;;;;4.55;1.60;;;14.00;51.10;;;9.10;81.81;94751.91;4922028;29;20054;-50
2024/03/23 04:36:48;;;;;;;3.00;1.70;;;13.90;51.20;;;9.01;82.84;94741.84;4923521;29;20035;-53
2024/03/23 04:39:14;;;;;;;3.95;1.90;;;13.70;51.40;;;8.83;83.75;94731.06;4917788;29;20027;-52
2024/03/23 04:41:40;;;;;;;4.15;1.60;;;13.60;51.60;;;8.71;84.87;94729.56;4923234;29;20107;-52
2024/03/23 04:44:06;;;;;;;2.80;1.65;;;13.40;51.80;;;8.63;84.65;94722.16;4916932;29;20051;-51
2024/03/23 04:46:32;;;;;;;3.50;1.50;;;13.30;52.00;;;8.55;85.20;94723.53;4917871;29;20042;-52
2024/03/23 04:48:58;;;;;;;4.20;1.70;;;13.20;52.20;;;8.50;85.61;94722.75;4913561;29;20081;-50
2024/03/23 04:51:24;;;;;;;4.22;1.70;;;13.10;52.40;;;8.41;86.73;94719.06;4917846;29;20077;-49
2024/03/23 04:53:50;;;;;;;3.15;1.83;;;13.00;52.60;;;8.40;86.52;94709.50;4922496;29;20020;-54
2024/03/23 04:56:18;;;;;;;2.25;1.70;;;13.00;52.80;;;8.46;87.33;94701.25;4921699;29;20065;-54
2024/03/23 04:58:44;;;;;;;2.67;1.88;;;13.00;53.00;;;8.46;85.96;94711.88;4915888;29;20051;-53
2024/03/23 05:01:12;;;;;;;5.53;1.67;;;13.00;53.20;;;8.51;85.44;94701.22;4917744;29;20495;-54
2024/03/23 05:03:38;;;;;;;2.05;1.60;;;13.00;53.30;;;8.62;84.87;94694.03;4918819;29;20467;-50
2024/03/23 05:06:05;;;;;;;3.80;1.77;;;13.00;53.40;;;8.75;84.42;94692.63;4918502;29;20105;-51
2024/03/23 05:08:31;;;;;;;3.90;1.70;;;13.10;53.50;;;8.98;82.33;94691.16;4923434;29;20779;-51
2024/03/23 05:10:57;;;;;;;2.50;1.50;;;13.10;53.70;;;9.16;80.55;94693.16;4911508;29;20044;-50
2024/03/23 05:13:22;;;;;;;3.88;1.77;;;13.30;53.70;;;9.35;78.42;94689.84;4919210;29;20101;-51
2024/03/23 05:15:55;;;;;;;4.78;1.85;;;13.40;53.60;;;9.56;77.40;94679.81;4920645;29;20038;-52
2024/03/23 05:18:22;;;;;;;2.05;1.40;;;13.50;53.60;;;9.72;76.36;94683.94;4925575;29;20027;-52
2024/03/23 05:20:48;;;;;;;3.35;1.70;;;13.70;53.40;;;9.90;75.03;94695.72;4901503;29;20042;-52
2024/03/23 05:23:15;;;;;;;3.25;1.50;;;13.80;53.30;;;10.09;74.10;94709.09;4925588;29;20026;-53
2024/03/23 05:25:41;;;;;;;5.40;1.85;;;13.90;53.10;;;10.26;72.65;94727.28;4901068;29;20063;-50
2024/03/23 05:28:06;;;;;;;3.28;1.70;;;14.10;53.00;;;10.36;73.40;94751.16;4926927;29;20482;-51
2024/03/23 05:30:33;;;;;;;9.05;2.22;;;14.20;52.80;;;10.44;79.36;94750.53;4919474;29;20035;-50
2024/03/23 05:32:58;;;;;;;4.78;2.45;;;14.30;53.00;;;10.44;82.96;94758.53;4921519;29;20165;-52
2024/03/23 05:35:24;;;;;;;4.45;2.50;;;14.30;54.10;;;10.38;88.19;94775.63;4925540;29;20055;-51
2024/03/23 05:37:50;;;;;;;4.43;2.88;;;14.20;55.30;;;10.19;92.23;94791.50;4925259;29;20031;-50
2024/03/23 05:40:16;;;;;;;6.97;3.20;;;14.10;56.10;;;9.95;97.38;94781.59;4924528;29;20035;-52
2024/03/23 05:42:42;;;;;;;6.07;3.30;;;13.90;57.10;;;9.75;100.00;94775.66;4929949;29;20037;-56
2024/03/23 05:45:08;;;;;;;6.93;3.45;;;13.70;57.70;;;9.73;100.00;94775.94;4934304;29;20385;-53
2024/03/23 05:47:34;;;;;;;5.35;3.90;;;13.60;57.90;;;9.61;100.00;94791.44;4924544;29;20436;-53
2024/03/23 05:50:01;;;;;;;9.00;4.03;;;13.50;58.30;;;9.52;100.00;94796.53;4932311;29;20487;-53
2024/03/23 05:52:27;;;;;;;5.43;3.63;;;13.40;58.70;;;9.49;100.00;94781.16;4931719;29;20525;-53
2024/03/23 05:54:53;;;;;;;8.85;3.85;;;13.30;59.10;;;9.37;100.00;94780.69;4902699;29;20150;-52
2024/03/23 05:57:19;;;;;;;6.05;3.80;;;13.20;59.40;;;9.32;100.00;94792.16;4928861;29;20215;-54
2024/03/23 05:59:45;;;;;;;4.25;3.10;;;13.20;59.90;;;9.33;100.00;94800.94;4927606;29;20019;-52
2024/03/23 06:02:11;;;;;;;4.18;3.30;;;13.20;60.30;;;9.27;100.00;94806.28;4924880;29;20394;-52
2024/03/23 06:04:37;;;;;;;6.80;3.47;;;13.10;60.80;;;9.24;100.00;94811.34;4919652;29;20057;-51
2024/03/23 06:07:06;;;;;;;7.05;4.00;;;13.10;61.50;;;9.25;100.00;94813.72;4904744;29;20498;-53
2024/03/23 06:09:32;;;;;;;7.07;4.30;;;13.10;62.00;;;9.16;100.00;94818.03;4930595;29;20429;-52
2024/03/23 06:11:58;;;;;;;6.20;4.70;;;13.00;63.10;;;9.13;100.00;94820.44;4928322;29;20035;-52
2024/03/23 06:14:24;;;;;;;7.93;4.90;;;13.00;63.40;;;9.02;100.00;94825.00;4927176;29;20084;-51
2024/03/23 06:16:49;;;;;;;9.60;5.47;;;13.10;64.10;;;8.98;100.00;94834.59;4926468;29;20043;-53
2024/03/23 06:19:15;;;;;;;9.45;6.00;;;13.00;64.60;;;8.93;100.00;94823.97;4922354;29;20019;-51
2024/03/23 06:21:45;;;;;;;8.77;5.90;;;13.00;64.60;;;8.88;100.00;94832.78;4923252;29;20028;-50
2024/03/23 06:24:12;;;;;;;9.40;6.35;;;13.00;65.00;;;8.87;100.00;94835.69;4923108;29;21143;-50
2024/03/23 06:26:38;;;;;;;14.00;7.53;;;13.00;65.00;;;8.80;100.00;94841.28;4928007;29;20030;-50
2024/03/23 06:29:05;;;;;;;10.05;6.75;;;13.00;65.60;;;8.76;100.00;94853.53;4927242;29;20019;-50
2024/03/23 06:31:31;;;;;;;9.60;6.30;;;12.90;65.60;;;8.74;100.00;94856.47;4922659;29;20035;-51
2024/03/23 06:33:57;;;;;;;9.45;6.10;;;12.90;65.90;;;8.64;100.00;94859.13;4926430;29;20047;-49
2024/03/23 06:36:23;;;;;;;10.77;6.18;;;12.90;66.00;;;8.67;100.00;94853.28;4925490;29;20043;-55
2024/03/23 06:38:48;;;;;;;10.10;6.00;;;12.80;66.00;;;8.57;100.00;94851.44;4928217;29;20050;-52
2024/03/23 06:41:15;;;;;;;11.27;6.72;;;12.70;66.20;;;8.52;100.00;94853.31;4919631;29;20035;-53
2024/03/23 06:43:41;;;;;;;9.05;5.95;;;12.70;66.30;;;8.50;100.00;94852.81;4926255;29;20089;-54
2024/03/23 06:46:06;;;;;;;8.18;6.10;;;12.60;66.30;;;8.49;100.00;94861.81;4922555;29;20027;-52
2024/03/23 06:48:32;;;;;;;12.18;6.35;;;12.60;67.30;;;8.48;100.00;94847.75;4925451;29;20023;-52
2024/03/23 06:50:59;;;;;;;10.45;6.32;;;12.60;66.40;;;8.45;100.00;94853.59;4919555;29;20031;-53
2024/03/23 06:53:25;;;;;;;9.13;6.07;;;12.50;66.80;;;8.45;100.00;94863.41;4921113;29;20019;-50
2024/03/23 06:55:53;;;;;;;10.52;6.40;;;12.50;66.90;;;8.45;100.00;94860.75;4925325;29;20521;-52
2024/03/23 06:58:24;;;;;;;10.90;6.80;;;12.50;67.10;;;8.44;100.00;94877.75;4925485;29;20073;-51
2024/03/23 07:00:51;;;;;;;11.93;6.90;;;12.60;67.50;;;8.47;100.00;94880.66;4917505;29;20487;-51
2024/03/23 07:03:17;;;;;;;7.13;6.05;;;12.60;67.30;;;8.47;100.00;94887.84;4922819;29;20027;-51
2024/03/23 07:05:43;;;;;;;7.25;5.95;;;12.70;67.30;;;8.53;100.00;94905.34;4918386;29;20454;-53
2024/03/23 07:08:09;;;;;;;9.32;5.95;;;12.70;67.20;;;8.51;100.00;94910.91;4927646;29;20453;-54
2024/03/23 07:10:40;;;;;;;7.68;5.20;;;12.70;68.00;;;8.53;100.00;94906.16;4916916;29;20028;-55
2024/03/23 07:13:06;;;;;;;8.50;5.75;;;12.80;67.20;;;8.56;100.00;94902.97;4906043;29;20015;-54
2024/03/23 07:15:32;;;;;;;9.05;5.38;;;12.80;67.00;;;8.58;100.00;94900.03;4918506;29;20529;-55
2024/03/23 07:17:58;;;;;;;9.30;4.90;;;12.80;66.90;;;8.50;100.00;94901.38;4924871;29;20030;-51
2024/03/23 07:20:23;;;;;;;6.78;3.97;;;12.80;67.00;;;8.52;100.00;94915.19;4922316;29;20035;-51
2024/03/23 07:22:49;;;;;;;6.38;3.78;;;12.80;66.80;;;8.54;100.00;94922.88;4915752;29;20107;-49
2024/03/23 07:25:15;;;;;;;7.70;3.63;;;12.80;66.60;;;8.53;100.00;94932.69;4918670;29;20057;-52
2024/03/23 07:27:41;;;;;;;4.93;3.53;;;12.90;66.60;;;8.52;100.00;94931.09;4925077;29;20027;-52
2024/03/23 07:30:08;;;;;;;5.35;3.28;;;12.90;66.40;;;8.53;100.00;94940.66;4925186;29;20070;-52
2024/03/23 07:32:35;;;;;;;4.57;3.63;;;12.90;66.30;;;8.49;100.00;94918.38;4922585;29;20023;-53
2024/03/23 07:35:01;;;;;;;4.43;3.70;;;12.90;66.20;;;8.52;100.00;94936.41;4923029;29;20125;-51
2024/03/23 07:37:27;;;;;;;4.18;3.25;;;13.00;66.10;;;8.56;100.00;94932.16;4922251;29;20066;-52
2024/03/23 07:39:53;;;;;;;4.32;3.50;;;13.10;65.90;;;8.61;100.00;94935.84;4918609;29;20035;-56
2024/03/23 07:42:18;;;;;;;4.80;3.42;;;13.10;65.60;;;8.67;100.00;94951.50;4924193;29;20510;-54
2024/03/23 07:44:46;;;;;;;4.50;3.72;;;13.20;65.50;;;8.65;100.00;94958.97;4916908;29;20479;-50
2024/03/23 07:47:12;;;;;;;7.28;3.70;;;13.20;65.30;;;8.63;100.00;94957.63;4921753;29;20688;-50
2024/03/23 07:49:39;;;;;;;4.63;3.20;;;13.20;65.30;;;8.64;100.00;94967.97;4901214;29;20035;-52
2024/03/23 07:52:05;;;;;;;3.53;3.13;;;13.20;65.30;;;8.58;100.00;94977.00;4926128;29;20027;-50
2024/03/23 07:54:31;;;;;;;4.55;3.10;;;13.10;65.10;;;8.53;100.00;94991.09;4920317;29;20031;-52
2024/03/23 07:56:57;;;;;;;4.18;3.08;;;13.10;65.10;;;8.53;100.00;94988.44;4928191;29;20617;-51
2024/03/23 07:59:23;;;;;;;3.95;3.00;;;13.00;65.10;;;8.47;100.00;94984.19;4917561;29;20035;-51
2024/03/23 08:01:49;;;;;;;2.40;1.90;;;13.00;65.20;;;8.27;100.00;95005.34;4925528;29;20023;-53
2024/03/23 08:04:15;;;;;;;2.55;1.77;;;13.00;65.30;;;8.05;100.00;95050.69;4923600;29;20039;-53
2024/03/23 08:06:41;;;;;;;2.22;1.30;;;12.90;65.00;;;7.95;100.00;95040.03;4922902;29;20035;-52
2024/03/23 08:09:06;;;;;;;1.63;0.93;;;12.80;64.60;;;7.78;100.00;95029.66;4927123;29;20475;-55
2024/03/23 08:11:36;;;;;;;1.05;0.85;;;12.80;64.40;;;7.68;100.00;95037.56;4923117;29;20031;-52
2024/03/23 08:14:01;;;;;;;3.72;1.00;;;12.60;63.90;;;7.68;100.00;95032.25;4921686;29;20110;-54
2024/03/23 08:16:28;;;;;;;1.20;0.93;;;12.60;63.70;;;7.70;100.00;95038.91;4925416;29;20113;-53
2024/03/23 08:18:57;;;;;;;1.13;0.95;;;12.70;63.70;;;7.70;100.00;95070.72;4921951;29;20039;-52
2024/03/23 08:21:25;;;;;;;1.10;0.80;;;12.70;64.40;;;7.79;100.00;95074.47;4927539;29;20065;-53
2024/03/23 08:23:51;;;;;;;1.65;0.70;;;12.70;63.50;;;7.74;100.00;95108.09;4924094;29;20498;-55
2024/03/23 08:26:19;;;;;;;0.50;0.50;;;12.70;63.50;;;7.74;100.00;95102.78;4925804;29;20038;-50
2024/03/23 08:28:45;;;;;;;0.50;0.47;;;12.70;63.50;;;7.62;100.00;95119.72;4925235;29;20435;-53
2024/03/23 08:31:14;;;;;;;0.50;0.50;;;12.70;63.30;;;7.50;100.00;95113.81;4922117;29;20031;-51
2024/03/23 08:33:42;;;;;;;0.50;0.50;;;12.60;63.10;;;7.46;100.00;95123.34;4925717;29;20506;-52
2024/03/23 08:36:14;;;;;;;0.82;0.60;;;12.60;63.10;;;7.45;100.00;95126.22;4917719;29;20457;-51
2024/03/23 08:38:41;;;;;;;1.02;0.70;;;12.50;63.10;;;7.36;100.00;95144.47;4908547;29;20027;-53
2024/03/23 08:41:10;;;;;;;0.50;0.50;;;12.40;63.10;;;7.33;100.00;95144.97;4923679;29;20042;-50
2024/03/23 08:43:39;;;;;;;0.57;0.40;;;12.40;63.10;;;7.21;100.00;95147.00;4925466;29;20015;-51
2024/03/23 08:46:15;;;;;;;2.50;0.57;;;12.30;63.00;;;7.18;100.00;95161.56;4926741;29;20030;-50
2024/03/23 08:48:45;;;;;;;0.40;0.40;;;12.20;62.70;;;7.13;100.00;95175.56;4925190;29;20026;-54
2024/03/23 08:51:16;;;;;;;0.88;0.50;;;12.10;62.50;;;7.05;99.20;95164.63;4921046;29;20614;-51
2024/03/23 08:53:43;;;;;;;2.50;0.68;;;12.20;63.30;;;7.02;98.55;95165.94;4920814;29;20022;-53
2024/03/23 08:56:10;;;;;;;1.02;0.55;;;12.20;62.20;;;6.97;97.84;95165.09;4925138;29;20117;-55
2024/03/23 08:58:39;;;;;;;1.02;0.60;;;12.20;62.00;;;7.05;95.73;95164.63;4906966;29;20030;-54
2024/03/23 09:01:13;;;;;;;0.95;0.63;;;12.30;61.50;;;7.16;94.97;95158.34;4920341;29;20049;-49
2024/03/23 09:03:40;;;;;;;2.25;0.60;;;12.50;61.20;;;7.05;90.85;95152.19;4917453;29;20023;-54
2024/03/23 09:06:14;;;;;;;3.13;0.82;;;12.60;60.30;;;7.11;90.24;95160.94;4917589;29;20031;-55
2024/03/23 09:08:41;;;;;;;3.22;0.90;;;12.60;59.60;;;7.27;87.05;95169.81;4924197;29;20024;-50
2024/03/23 09:11:10;;;;;;;2.10;0.85;;;12.70;59.50;;;7.33;86.43;95168.81;4921715;29;20435;-50
2024/03/23 09:13:38;;;;;;;3.50;1.27;;;12.90;59.10;;;7.48;83.43;95184.81;4917639;29;20081;-49
2024/03/23 09:16:06;;;;;;;1.25;0.70;;;13.00;58.80;;;7.55;81.03;95187.25;4919532;29;20122;-50
2024/03/23 09:18:35;;;;;;;1.77;0.93;;;13.10;58.30;;;7.57;78.77;95193.91;4913259;29;20374;-51
2024/03/23 09:21:10;;;;;;;3.90;0.90;;;13.20;58.10;;;7.59;76.63;95205.06;4908208;29;20035;-49
2024/03/23 09:23:36;;;;;;;3.85;0.95;;;13.20;57.50;;;7.42;71.97;95196.44;4920146;29;20067;-50
2024/03/23 09:26:08;;;;;;;7.00;1.40;;;13.20;56.60;;;7.48;73.71;95213.97;4922311;29;20039;-50
2024/03/23 09:28:34;;;;;;;3.40;1.10;;;13.20;56.00;;;7.43;71.66;95208.66;4918756;29;20035;-53
2024/03/23 09:31:05;;;;;;;6.45;1.42;;;13.20;55.90;;;7.49;74.04;95228.03;4918644;29;20041;-51
2024/03/23 09:33:31;;;;;;;2.92;1.13;;;13.10;55.50;;;7.53;72.53;95234.44;4921949;29;20499;-50
2024/03/23 09:35:57;;;;;;;5.32;1.20;;;13.10;55.60;;;7.61;74.33;95240.03;4917955;29;20031;-51
2024/03/23 09:38:23;;;;;;;7.90;2.30;;;13.10;55.50;;;7.55;75.00;95240.25;4914635;29;20039;-49
2024/03/23 09:40:53;;;;;;;5.97;1.20;;;13.10;55.30;;;7.50;72.58;95251.63;4922336;29;20192;-52
2024/03/23 09:43:20;;;;;;;3.80;1.42;;;13.10;54.80;;;7.44;73.90;95249.19;4920751;29;20034;-51
2024/03/23 09:45:46;;;;;;;5.60;1.52;;;13.10;54.70;;;7.52;74.26;95241.59;4917746;29;20158;-52
2024/03/23 09:48:13;;;;;;;4.47;1.38;;;13.10;54.60;;;7.36;72.70;95231.91;4919120;29;20023;-50
2024/03/23 09:50:40;;;;;;;5.90;1.83;;;13.10;54.30;;;7.31;72.00;95229.22;4918246;29;20035;-51
2024/03/23 09:53:14;;;;;;;5.93;1.50;;;13.10;53.60;;;7.48;73.62;95237.03;4914238;29;20019;-52
2024/03/23 09:55:44;;;;;;;6.30;1.73;;;13.20;53.70;;;7.51;72.93;95249.78;4919612;29;20023;-53
2024/03/23 09:58:17;;;;;;;6.68;1.70;;;13.20;53.50;;;7.53;73.19;95253.00;4903693;29;20019;-51
2024/03/23 10:00:43;;;;;;;6.40;1.55;;;13.30;53.20;;;7.51;74.06;95247.94;4911505;29;20024;-53
2024/03/23 10:03:11;;;;;;;4.00;1.48;;;13.30;53.00;;;7.44;71.94;95249.19;4927039;29;20046;-54
2024/03/23 10:05:37;;;;;;;6.38;1.45;;;13.30;52.90;;;7.58;72.18;95269.75;4919468;29;20132;-51
2024/03/23 10:08:19;;;;;;;6.40;1.80;;;13.30;52.90;;;7.69;70.52;95259.22;4923053;29;20019;-52
2024/03/23 10:10:46;;;;;;;8.13;1.80;;;13.30;52.80;;;7.53;69.91;95250.34;4911678;29;20483;-52
2024/03/23 10:13:26;;;;;;;6.13;1.70;;;13.20;53.00;;;7.56;70.47;95263.88;4915591;29;20027;-52
2024/03/23 10:15:59;;;;;;;4.30;1.70;;;13.20;52.40;;;7.54;70.42;95265.97;4926534;29;20382;-53
2024/03/23 10:18:28;;;;;;;5.20;1.42;;;13.10;52.30;;;7.35;70.73;95276.16;4917600;29;20066;-50
2024/03/23 10:21:05;;;;;;;4.50;1.52;;;13.10;52.10;;;7.43;70.11;95290.81;4921613;29;20438;-52